Time;durP1;ratioP1;P1;durP2;ratioP2;P2;SDS_P1;SDS_P2;PMS_P1;PMS_P2;Temp;Humidity;BMP_temperature;BMP_pressure;BME280_temperature;BME280_humidity;BME280_pressure;Samples;Min_cycle;Max_cycle;Signal;HPM_P1;HPM_P2
2023/08/17 00:02:07;;;;;;;8.80;8.00;;;;;;;28.42;54.20;101090.44;5035391;28;20049;-55
2023/08/17 00:04:34;;;;;;;9.00;8.20;;;;;;;28.44;54.30;101095.66;5035320;28;20041;-55
2023/08/17 00:07:02;;;;;;;8.63;7.82;;;;;;;28.44;54.10;101091.09;5035574;28;20407;-57
2023/08/17 00:09:29;;;;;;;8.82;7.95;;;;;;;28.43;54.39;101083.94;5035066;28;20483;-53
2023/08/17 00:11:57;;;;;;;8.82;7.93;;;;;;;28.45;54.11;101070.16;5035156;28;20053;-55
2023/08/17 00:14:25;;;;;;;8.55;7.75;;;;;;;28.45;54.32;101070.16;5034869;28;20049;-55
2023/08/17 00:16:52;;;;;;;8.57;7.78;;;;;;;28.45;53.94;101071.00;5034919;28;20506;-55
2023/08/17 00:19:20;;;;;;;9.52;8.43;;;;;;;28.44;54.38;101072.03;5035268;28;20049;-59
2023/08/17 00:21:47;;;;;;;9.63;8.82;;;;;;;28.44;54.17;101077.47;5035019;28;20476;-59
2023/08/17 00:24:14;;;;;;;8.60;7.80;;;;;;;28.45;54.30;101070.16;5034826;28;20042;-59
2023/08/17 00:26:42;;;;;;;8.07;7.30;;;;;;;28.45;54.03;101071.00;5034644;28;20510;-59
2023/08/17 00:29:09;;;;;;;9.82;8.82;;;;;;;28.45;54.47;101071.00;5034817;28;20053;-58
2023/08/17 00:31:36;;;;;;;8.55;7.78;;;;;;;28.46;54.03;101066.38;5034877;28;20041;-59
2023/08/17 00:34:04;;;;;;;7.47;6.88;;;;;;;28.45;53.96;101065.56;5035240;28;20045;-59
2023/08/17 00:36:31;;;;;;;8.65;7.85;;;;;;;28.45;53.99;101054.66;5033870;28;20060;-59
2023/08/17 00:38:58;;;;;;;8.57;7.78;;;;;;;28.46;54.19;101053.63;5045107;28;20056;-55
2023/08/17 00:41:28;;;;;;;8.65;7.93;;;;;;;28.45;53.94;101060.09;5033879;28;20492;-55
2023/08/17 00:43:56;;;;;;;8.75;7.95;;;;;;;28.46;54.07;101061.78;5045696;28;20045;-54
2023/08/17 00:46:25;;;;;;;9.20;8.50;;;;;;;28.45;54.02;101068.28;5039843;28;20530;-54
2023/08/17 00:48:54;;;;;;;9.23;8.32;;;;;;;28.47;53.92;101068.06;5034188;28;20377;-55
2023/08/17 00:51:23;;;;;;;8.50;7.72;;;;;;;28.47;54.21;101082.53;5033503;28;20049;-54
2023/08/17 00:53:52;;;;;;;9.02;8.18;;;;;;;28.47;54.36;101084.41;5034241;28;20060;-55
2023/08/17 00:56:21;;;;;;;8.50;7.70;;;;;;;28.47;54.02;101074.38;5034702;28;20045;-54
2023/08/17 00:58:50;;;;;;;8.73;7.93;;;;;;;28.48;54.20;101075.19;5033266;28;20061;-59
2023/08/17 01:01:18;;;;;;;9.40;8.60;;;;;;;28.47;54.19;101085.25;5033981;28;20053;-59
2023/08/17 01:03:45;;;;;;;8.50;7.72;;;;;;;28.47;54.07;101087.13;5035339;28;20045;-59
2023/08/17 01:06:14;;;;;;;8.98;8.18;;;;;;;28.47;53.91;101093.44;5033452;28;20053;-59
2023/08/17 01:08:43;;;;;;;9.10;8.23;;;;;;;28.47;54.39;101087.13;5032823;28;20057;-54
2023/08/17 01:11:13;;;;;;;9.13;8.35;;;;;;;28.47;54.31;101082.53;5034590;28;20056;-54
2023/08/17 01:14:10;;;;;;;8.63;7.93;;;;;;;28.47;54.29;101085.25;5034181;28;20064;-55
2023/08/17 01:16:52;;;;;;;8.43;7.63;;;;;;;28.47;54.22;101074.38;5034642;28;20045;-54
2023/08/17 01:19:26;;;;;;;8.98;8.18;;;;;;;28.48;54.43;101084.25;5035258;28;20411;-55
2023/08/17 01:22:05;;;;;;;8.70;7.88;;;;;;;28.47;54.50;101068.91;5032477;28;20060;-55
2023/08/17 01:24:33;;;;;;;8.25;7.55;;;;;;;28.47;53.97;101062.63;5040118;28;20041;-55
2023/08/17 01:27:00;;;;;;;9.25;8.35;;;;;;;28.48;54.43;101069.75;5034352;28;20049;-55
2023/08/17 01:29:28;;;;;;;8.65;7.90;;;;;;;28.48;53.92;101064.31;5035275;28;20455;-59
2023/08/17 01:32:42;;;;;;;8.18;7.50;;;;;;;28.47;54.10;101063.47;5035209;28;20061;-59
2023/08/17 01:35:21;;;;;;;8.90;8.07;;;;;;;28.47;54.09;101063.47;5034726;28;20062;-59
2023/08/17 01:37:52;;;;;;;9.07;8.27;;;;;;;28.47;54.28;101063.47;5034853;28;20060;-53
2023/08/17 01:40:21;;;;;;;8.67;7.87;;;;;;;28.47;54.36;101071.63;5033151;28;20053;-54
2023/08/17 01:42:50;;;;;;;9.48;8.48;;;;;;;28.47;54.44;101071.63;5034327;28;20057;-55
2023/08/17 01:45:18;;;;;;;9.35;8.55;;;;;;;28.47;54.33;101068.91;5040541;28;20052;-52
2023/08/17 01:47:45;;;;;;;8.73;7.93;;;;;;;28.47;54.12;101090.69;5032548;28;20053;-59
2023/08/17 01:50:13;;;;;;;9.25;8.38;;;;;;;28.47;54.03;101103.47;5034517;28;20056;-58
2023/08/17 01:52:41;;;;;;;8.38;7.60;;;;;;;28.46;54.13;101099.91;5037001;28;20048;-59
2023/08/17 01:55:08;;;;;;;8.68;7.97;;;;;;;28.47;54.04;101101.59;5040245;28;20049;-59
2023/08/17 01:57:36;;;;;;;9.20;8.40;;;;;;;28.47;54.03;101095.31;5032100;28;20053;-59
2023/08/17 02:00:05;;;;;;;9.27;8.48;;;;;;;28.48;54.06;101107.88;5033078;28;20057;-59
2023/08/17 02:02:40;;;;;;;8.98;8.18;;;;;;;28.47;54.35;101104.31;5041077;28;20057;-59
2023/08/17 02:05:08;;;;;;;8.98;8.27;;;;;;;28.48;54.29;101105.16;5032230;28;20046;-59
2023/08/17 02:07:37;;;;;;;8.30;7.60;;;;;;;28.47;54.12;101109.78;5034550;28;20488;-55
2023/08/17 02:10:05;;;;;;;8.85;7.90;;;;;;;28.48;54.07;101119.66;5034063;28;20046;-55
2023/08/17 02:12:32;;;;;;;8.82;8.10;;;;;;;28.48;54.09;101102.44;5034489;28;20049;-54
2023/08/17 02:14:59;;;;;;;8.43;7.72;;;;;;;28.47;54.58;101111.66;5031901;28;20052;-54
2023/08/17 02:17:27;;;;;;;8.18;7.50;;;;;;;28.48;54.42;101107.88;5034034;28;20045;-54
2023/08/17 02:19:55;;;;;;;9.00;8.20;;;;;;;28.47;54.66;101104.31;5034064;28;20049;-55
2023/08/17 02:22:22;;;;;;;8.65;7.72;;;;;;;28.47;54.42;101111.66;5034478;28;20154;-54
2023/08/17 02:24:49;;;;;;;9.15;8.35;;;;;;;28.47;54.37;101107.03;5033803;28;20038;-55
2023/08/17 02:27:17;;;;;;;8.80;8.05;;;;;;;28.48;54.17;101107.88;5033899;28;20046;-55
2023/08/17 02:29:44;;;;;;;8.75;8.05;;;;;;;28.48;54.59;101107.88;5033763;28;20054;-54
2023/08/17 02:32:11;;;;;;;9.10;8.30;;;;;;;28.47;54.17;101109.78;5032603;28;20057;-54
2023/08/17 02:34:39;;;;;;;8.38;7.68;;;;;;;28.46;54.09;101113.53;5033075;28;20056;-54
2023/08/17 02:37:06;;;;;;;8.48;7.78;;;;;;;28.47;54.13;101117.09;5032177;28;20061;-57
2023/08/17 02:39:34;;;;;;;9.15;8.32;;;;;;;28.46;54.36;101116.25;5032727;28;20052;-54
2023/08/17 02:42:01;;;;;;;8.70;7.90;;;;;;;28.47;54.64;101111.66;5044386;28;20064;-55
2023/08/17 02:44:30;;;;;;;8.63;7.93;;;;;;;28.46;54.64;101099.91;5037534;28;20052;-54
2023/08/17 02:46:58;;;;;;;9.13;8.23;;;;;;;28.46;54.71;101099.91;5037292;28;20049;-55
2023/08/17 02:49:25;;;;;;;8.80;8.05;;;;;;;28.46;54.19;101099.06;5037264;28;20049;-59
2023/08/17 02:51:52;;;;;;;8.80;8.10;;;;;;;28.47;54.12;101095.31;5038145;28;20100;-59
2023/08/17 02:54:20;;;;;;;9.13;8.40;;;;;;;28.46;54.61;101097.19;5035088;28;20054;-58
2023/08/17 02:56:47;;;;;;;9.18;8.38;;;;;;;28.46;54.36;101096.34;5037122;28;20041;-55
2023/08/17 02:59:14;;;;;;;8.68;7.88;;;;;;;28.46;54.29;101099.91;5037441;28;20050;-59
2023/08/17 03:01:45;;;;;;;9.02;8.07;;;;;;;28.46;54.59;101105.34;5038117;28;20522;-59
2023/08/17 03:04:13;;;;;;;9.38;8.10;;;;;;;28.47;54.20;101109.78;5035207;28;20503;-59
2023/08/17 03:06:41;;;;;;;9.68;8.77;;;;;;;28.48;54.73;101107.88;5035565;28;20045;-59
2023/08/17 03:09:08;;;;;;;8.10;7.30;;;;;;;28.47;54.75;101095.31;5045195;28;20064;-55
2023/08/17 03:11:35;;;;;;;9.52;8.73;;;;;;;28.46;54.36;101105.34;5036274;28;20049;-55
2023/08/17 03:14:03;;;;;;;9.00;8.20;;;;;;;28.47;54.47;101112.50;5036918;28;20061;-55
2023/08/17 03:16:31;;;;;;;9.88;8.15;;;;;;;28.46;54.28;101102.63;5035015;28;20045;-55
2023/08/17 03:18:59;;;;;;;9.07;8.27;;;;;;;28.47;54.66;101109.78;5035373;28;20057;-55
2023/08/17 03:21:27;;;;;;;8.65;7.93;;;;;;;28.46;54.54;101108.09;5037053;28;20052;-55
2023/08/17 03:23:54;;;;;;;8.82;8.02;;;;;;;28.47;54.73;101108.94;5036525;28;20052;-54
2023/08/17 03:26:22;;;;;;;8.82;8.02;;;;;;;28.47;54.84;101107.03;5036384;28;20046;-55
2023/08/17 03:28:49;;;;;;;9.73;8.93;;;;;;;28.46;54.48;101104.53;5047924;28;20057;-59
2023/08/17 03:31:17;;;;;;;8.52;7.82;;;;;;;28.46;54.76;101107.25;5043164;28;20050;-58
2023/08/17 03:33:44;;;;;;;9.50;8.70;;;;;;;28.45;54.42;101109.13;5034497;28;20534;-58
2023/08/17 03:36:11;;;;;;;8.98;8.18;;;;;;;28.46;54.40;101110.81;5036181;28;20049;-59
2023/08/17 03:38:39;;;;;;;10.00;9.20;;;;;;;28.45;54.74;101109.13;5034853;28;20061;-59
2023/08/17 03:41:07;;;;;;;8.82;8.02;;;;;;;28.46;54.42;101108.09;5035951;28;20049;-59
2023/08/17 03:43:37;;;;;;;8.95;8.15;;;;;;;28.46;54.82;101112.69;5034458;28;20049;-59
2023/08/17 03:46:04;;;;;;;9.35;8.55;;;;;;;28.45;54.80;101108.28;5036402;28;20041;-59
2023/08/17 03:48:32;;;;;;;8.55;7.75;;;;;;;28.46;54.56;101104.53;5036347;28;20049;-55
2023/08/17 03:51:01;;;;;;;9.77;8.88;;;;;;;28.46;54.52;101115.41;5036635;28;20072;-55
2023/08/17 03:53:28;;;;;;;9.98;9.18;;;;;;;28.45;54.77;101114.56;5034107;28;20064;-55
2023/08/17 03:55:56;;;;;;;8.85;8.10;;;;;;;28.46;54.74;101109.97;5049226;28;20052;-55
2023/08/17 03:58:26;;;;;;;9.80;9.00;;;;;;;28.44;54.39;101110.16;5034913;28;20057;-56
2023/08/17 04:00:54;;;;;;;9.57;8.77;;;;;;;28.45;54.81;101113.72;5036415;28;20510;-55
2023/08/17 04:03:27;;;;;;;9.68;8.80;;;;;;;28.46;54.56;101109.97;5034673;28;20053;-55
2023/08/17 04:05:55;;;;;;;9.60;8.80;;;;;;;28.45;54.58;101111.00;5035736;28;20495;-58
2023/08/17 04:08:22;;;;;;;9.60;8.80;;;;;;;28.44;54.35;101112.88;5035932;28;20053;-56
2023/08/17 04:10:49;;;;;;;10.00;9.15;;;;;;;28.44;54.66;101107.44;5040670;28;20404;-54
2023/08/17 04:13:17;;;;;;;9.38;8.57;;;;;;;28.44;54.55;101096.53;5033759;28;20080;-55
2023/08/17 04:15:44;;;;;;;9.45;8.65;;;;;;;28.44;54.31;101101.13;5034210;28;20065;-55
2023/08/17 04:18:12;;;;;;;9.63;8.75;;;;;;;28.45;54.38;101097.38;5034297;28;20057;-59
2023/08/17 04:20:39;;;;;;;8.85;8.15;;;;;;;28.45;54.49;101109.13;5040357;28;20061;-58
2023/08/17 04:23:08;;;;;;;8.55;7.85;;;;;;;28.43;54.31;101100.28;5042159;28;20050;-58
2023/08/17 04:25:36;;;;;;;9.05;8.25;;;;;;;28.44;54.42;101096.53;5034073;28;20049;-59
2023/08/17 04:28:04;;;;;;;9.18;8.38;;;;;;;28.45;54.53;101091.94;5034509;28;20050;-59
2023/08/17 04:30:33;;;;;;;9.90;8.80;;;;;;;28.44;54.32;101099.28;5033837;28;20049;-58
2023/08/17 04:33:02;;;;;;;9.07;8.27;;;;;;;28.44;54.29;101102.00;5033783;28;20054;-59
2023/08/17 04:35:30;;;;;;;9.75;8.90;;;;;;;28.43;54.39;101102.16;5034697;28;20049;-59
2023/08/17 04:37:58;;;;;;;8.65;7.93;;;;;;;28.44;54.40;101099.28;5034450;28;20053;-55
2023/08/17 04:40:25;;;;;;;9.65;8.75;;;;;;;28.44;54.60;101104.72;5033175;28;20049;-55
2023/08/17 04:42:52;;;;;;;9.40;8.57;;;;;;;28.43;54.39;101097.56;5035243;28;20052;-54
2023/08/17 04:45:22;;;;;;;10.60;9.68;;;;;;;28.44;54.27;101102.00;5033807;28;20053;-54
2023/08/17 04:47:50;;;;;;;10.02;9.10;;;;;;;28.44;54.26;101093.81;5034302;28;20415;-58
2023/08/17 04:50:18;;;;;;;10.38;9.38;;;;;;;28.43;54.24;101100.28;5035091;28;20048;-57
2023/08/17 04:52:45;;;;;;;10.43;9.60;;;;;;;28.43;54.16;101103.00;5033180;28;20061;-57
2023/08/17 04:55:14;;;;;;;10.80;9.70;;;;;;;28.43;54.38;101104.88;5033943;28;20057;-57
2023/08/17 04:57:42;;;;;;;11.07;10.18;;;;;;;28.41;54.43;101099.63;5034488;28;20049;-57
2023/08/17 05:00:13;;;;;;;11.32;10.32;;;;;;;28.41;54.41;101107.81;5032842;28;20053;-57
2023/08/17 05:02:42;;;;;;;11.80;10.70;;;;;;;28.41;53.97;101109.69;5034098;28;20057;-57
2023/08/17 05:05:10;;;;;;;10.55;9.65;;;;;;;28.39;53.98;101100.84;5033164;28;20064;-57
2023/08/17 05:07:38;;;;;;;10.55;9.55;;;;;;;28.39;53.82;101106.28;5034163;28;20400;-57
2023/08/17 05:10:06;;;;;;;11.27;10.35;;;;;;;28.37;54.24;101111.94;5033287;28;20057;-58
2023/08/17 05:12:36;;;;;;;11.10;10.15;;;;;;;28.36;54.13;101110.25;5032928;28;20058;-58
2023/08/17 05:15:04;;;;;;;11.13;10.15;;;;;;;28.35;54.11;101103.03;5033368;28;20052;-57
2023/08/17 05:17:34;;;;;;;11.00;10.00;;;;;;;28.35;54.06;101105.78;5034763;28;20063;-57
2023/08/17 05:20:02;;;;;;;11.18;10.05;;;;;;;28.33;53.68;101103.25;5033083;28;20057;-57
2023/08/17 05:22:30;;;;;;;10.82;9.93;;;;;;;28.34;53.90;101107.66;5033570;28;20411;-57
2023/08/17 05:24:57;;;;;;;11.27;10.18;;;;;;;28.32;53.61;101106.16;5034343;28;20383;-57
2023/08/17 05:27:25;;;;;;;11.23;10.23;;;;;;;28.33;53.58;101110.56;5035595;28;20057;-59
2023/08/17 05:29:54;;;;;;;11.75;10.65;;;;;;;28.31;53.66;101108.00;5037647;28;20041;-60
2023/08/17 05:32:22;;;;;;;10.90;9.82;;;;;;;28.31;53.45;101108.00;5032784;28;20065;-60
2023/08/17 05:34:52;;;;;;;10.77;9.85;;;;;;;28.31;53.71;101107.16;5032686;28;20049;-60
2023/08/17 05:37:20;;;;;;;11.05;10.15;;;;;;;28.30;53.68;101105.50;5034134;28;20053;-57
2023/08/17 05:39:47;;;;;;;10.77;9.77;;;;;;;28.31;53.44;101113.47;5049116;28;20049;-57
2023/08/17 05:42:16;;;;;;;10.38;9.50;;;;;;;28.30;53.52;101114.50;5032816;28;20065;-57
2023/08/17 05:44:44;;;;;;;10.77;9.88;;;;;;;28.30;53.79;101105.50;5032800;28;20058;-57
2023/08/17 05:47:15;;;;;;;11.15;10.15;;;;;;;28.29;53.37;101107.38;5048644;28;20049;-59
2023/08/17 05:49:42;;;;;;;10.77;9.88;;;;;;;28.30;53.51;101105.50;5032505;28;20049;-59
2023/08/17 05:52:09;;;;;;;10.52;9.50;;;;;;;28.30;53.71;101106.31;5034198;28;20049;-60
2023/08/17 05:54:37;;;;;;;10.50;9.48;;;;;;;28.32;53.70;101114.34;5034318;28;20045;-60
2023/08/17 05:57:04;;;;;;;10.82;9.93;;;;;;;28.32;53.90;101114.34;5046116;28;20498;-59
2023/08/17 05:59:32;;;;;;;9.60;8.90;;;;;;;28.33;53.73;101114.13;5036197;28;20057;-60
2023/08/17 06:01:59;;;;;;;10.48;9.57;;;;;;;28.33;53.85;101105.13;5034445;28;20064;-60
2023/08/17 06:04:26;;;;;;;10.45;9.55;;;;;;;28.33;54.06;101113.28;5034374;28;20056;-60
2023/08/17 06:06:54;;;;;;;11.00;10.00;;;;;;;28.33;54.04;101116.00;5033395;28;20408;-60
2023/08/17 06:09:22;;;;;;;10.50;9.60;;;;;;;28.33;54.02;101118.75;5033586;28;20506;-59
2023/08/17 06:11:49;;;;;;;10.18;9.27;;;;;;;28.34;54.12;101118.53;5039715;28;20499;-60
2023/08/17 06:14:16;;;;;;;10.25;9.38;;;;;;;28.34;54.04;101114.97;5033649;28;20072;-60
2023/08/17 06:16:44;;;;;;;10.60;9.70;;;;;;;28.35;54.17;101120.22;5040023;28;20041;-60
2023/08/17 06:19:11;;;;;;;10.07;9.25;;;;;;;28.35;53.91;101114.78;5035707;28;20057;-59
2023/08/17 06:21:39;;;;;;;10.13;9.23;;;;;;;28.36;54.36;101121.13;5037822;28;20399;-58
2023/08/17 06:24:06;;;;;;;10.63;9.73;;;;;;;28.35;53.98;101117.50;5038072;28;20152;-58
2023/08/17 06:26:33;;;;;;;11.43;10.45;;;;;;;28.35;53.77;101119.38;5037627;28;20041;-57
2023/08/17 06:29:01;;;;;;;10.65;9.75;;;;;;;28.33;53.96;101116.00;5038867;28;20041;-61
2023/08/17 06:31:30;;;;;;;10.23;9.27;;;;;;;28.30;53.55;101127.28;5049971;28;20044;-57
2023/08/17 06:33:58;;;;;;;10.02;9.13;;;;;;;28.30;53.46;101121.81;5040617;28;20049;-54
2023/08/17 06:36:25;;;;;;;10.38;9.48;;;;;;;28.28;53.56;101123.91;5047226;28;20049;-54
2023/08/17 06:38:53;;;;;;;10.05;9.25;;;;;;;28.27;53.53;101128.47;5045481;28;20049;-55
2023/08/17 06:41:20;;;;;;;9.43;8.60;;;;;;;28.25;53.03;101133.28;5037903;28;20388;-54
2023/08/17 06:43:47;;;;;;;9.98;9.18;;;;;;;28.22;53.21;101125.47;5037646;28;20041;-55
2023/08/17 06:46:15;;;;;;;9.60;8.70;;;;;;;28.21;53.42;101123.78;5036999;28;20052;-57
2023/08/17 06:48:43;;;;;;;9.60;8.80;;;;;;;28.20;53.09;101115.81;5047702;28;20041;-57
2023/08/17 06:51:11;;;;;;;8.55;7.85;;;;;;;28.21;52.87;101128.38;5036800;28;20411;-56
2023/08/17 06:53:38;;;;;;;9.80;8.90;;;;;;;28.18;53.07;101118.69;5037374;28;20502;-57
2023/08/17 06:56:06;;;;;;;9.45;8.65;;;;;;;28.17;53.05;101127.91;5036212;28;20045;-57
2023/08/17 06:58:33;;;;;;;8.70;7.90;;;;;;;28.16;52.64;101122.66;5036031;28;20049;-59
2023/08/17 07:01:00;;;;;;;9.00;8.23;;;;;;;28.16;52.66;101122.66;5036061;28;20049;-59
2023/08/17 07:03:28;;;;;;;8.63;7.90;;;;;;;28.14;52.43;101121.97;5035938;28;20050;-59
2023/08/17 07:05:55;;;;;;;8.63;7.82;;;;;;;28.14;52.68;101130.97;5036152;28;20472;-59
2023/08/17 07:08:22;;;;;;;8.65;7.95;;;;;;;28.14;52.69;101127.41;5036214;28;20053;-59
2023/08/17 07:10:50;;;;;;;8.73;7.82;;;;;;;28.13;53.16;101131.19;5035612;28;20057;-58
2023/08/17 07:13:17;;;;;;;8.50;7.70;;;;;;;28.13;52.79;101126.56;5035711;28;20072;-59
2023/08/17 07:15:44;;;;;;;9.73;8.82;;;;;;;28.12;53.41;101124.88;5035825;28;20049;-59
2023/08/17 07:18:12;;;;;;;9.75;8.70;;;;;;;28.12;53.31;101130.34;5035840;28;20068;-59
2023/08/17 07:20:39;;;;;;;9.38;8.45;;;;;;;28.13;53.08;101136.63;5036293;28;20053;-59
2023/08/17 07:23:06;;;;;;;8.82;8.02;;;;;;;28.13;53.64;101133.91;5035433;28;20057;-59
2023/08/17 07:25:34;;;;;;;9.50;8.57;;;;;;;28.13;53.50;101134.75;5035023;28;20053;-59
2023/08/17 07:28:01;;;;;;;9.50;8.02;;;;;;;28.14;53.26;101133.69;5035938;28;20046;-59
2023/08/17 07:30:29;;;;;;;9.57;8.65;;;;;;;28.15;53.22;101129.09;5034393;28;20068;-59
2023/08/17 07:32:56;;;;;;;11.00;8.40;;;;;;;28.16;53.45;101130.81;5035460;28;20049;-59
2023/08/17 07:35:24;;;;;;;9.82;7.82;;;;;;;28.17;53.20;101138.78;5046157;28;20056;-59
2023/08/17 07:37:51;;;;;;;8.68;7.70;;;;;;;28.19;53.46;101135.88;5039841;28;20041;-59
2023/08/17 07:40:33;;;;;;;8.32;7.53;;;;;;;28.20;53.58;101127.53;5034622;28;20038;-59
2023/08/17 07:43:01;;;;;;;8.95;8.13;;;;;;;28.23;53.72;101138.03;5035129;28;20079;-59
2023/08/17 07:45:29;;;;;;;9.50;8.60;;;;;;;28.24;53.62;101122.56;5036299;28;20049;-59
2023/08/17 07:47:56;;;;;;;8.75;8.00;;;;;;;28.25;53.58;101132.44;5035917;28;20046;-55
2023/08/17 07:50:23;;;;;;;9.88;8.93;;;;;;;28.25;53.63;101137.88;5035397;28;20415;-54
2023/08/17 07:52:51;;;;;;;9.52;8.73;;;;;;;28.25;53.63;101138.72;5036268;28;20447;-55
2023/08/17 07:55:18;;;;;;;9.32;8.38;;;;;;;28.27;53.92;101135.81;5035262;28;20060;-55
2023/08/17 07:57:46;;;;;;;9.05;8.25;;;;;;;28.28;53.70;101132.91;5035021;28;20403;-59
2023/08/17 08:00:13;;;;;;;10.85;8.88;;;;;;;28.29;53.72;101131.88;5035499;28;20049;-59
2023/08/17 08:02:41;;;;;;;9.40;8.38;;;;;;;28.30;53.59;101125.38;5035855;28;20045;-59
2023/08/17 08:05:08;;;;;;;10.07;9.23;;;;;;;28.31;53.69;101129.78;5035278;28;20052;-61
2023/08/17 08:07:36;;;;;;;8.98;8.05;;;;;;;28.32;53.76;101128.78;5035404;28;20042;-55
2023/08/17 08:10:03;;;;;;;11.65;9.27;;;;;;;28.33;54.07;101138.66;5034846;28;20052;-55
2023/08/17 08:12:31;;;;;;;9.38;8.52;;;;;;;28.34;54.09;101126.72;5035298;28;20049;-56
2023/08/17 08:14:58;;;;;;;8.70;8.00;;;;;;;28.34;54.13;101140.31;5035086;28;20050;-55
2023/08/17 08:17:26;;;;;;;9.73;8.82;;;;;;;28.35;54.22;101139.28;5034777;28;20061;-60
2023/08/17 08:19:54;;;;;;;8.27;7.47;;;;;;;28.36;53.95;101134.75;5034644;28;20048;-60
2023/08/17 08:22:21;;;;;;;9.68;8.75;;;;;;;28.36;54.15;101134.75;5035319;28;20050;-60
2023/08/17 08:24:48;;;;;;;8.60;7.72;;;;;;;28.37;54.01;101130.16;5042103;28;20040;-60
2023/08/17 08:27:16;;;;;;;11.70;8.18;;;;;;;28.37;53.98;101130.16;5036628;28;20045;-60
2023/08/17 08:29:43;;;;;;;8.73;7.88;;;;;;;28.36;53.64;101126.56;5034429;28;20068;-60
2023/08/17 08:32:11;;;;;;;8.45;7.65;;;;;;;28.38;53.61;101131.84;5034811;28;20045;-61
2023/08/17 08:34:38;;;;;;;8.80;7.90;;;;;;;28.39;53.60;101125.34;5034838;28;20049;-60
2023/08/17 08:37:05;;;;;;;9.27;8.38;;;;;;;28.40;53.50;101132.47;5034531;28;20049;-56
2023/08/17 08:39:47;;;;;;;8.57;7.88;;;;;;;28.39;53.45;101126.19;5034418;28;20049;-54
2023/08/17 08:42:15;;;;;;;8.87;8.07;;;;;;;28.39;53.79;101131.63;5040808;28;20502;-55
2023/08/17 08:44:42;;;;;;;8.75;7.95;;;;;;;28.39;53.58;101131.63;5033620;28;20052;-54
2023/08/17 08:47:11;;;;;;;8.50;7.78;;;;;;;28.39;53.86;101131.63;5049200;28;20048;-60
2023/08/17 08:50:05;;;;;;;8.80;8.10;;;;;;;28.40;53.46;101127.91;5041499;28;20060;-60
2023/08/17 08:52:49;;;;;;;8.98;8.18;;;;;;;28.40;53.83;101127.91;5034151;28;20049;-60
2023/08/17 08:55:23;;;;;;;9.15;8.13;;;;;;;28.40;53.52;101127.91;5039133;28;20452;-60
2023/08/17 08:57:53;;;;;;;8.95;8.15;;;;;;;28.42;53.80;101124.97;5043291;28;20534;-55
2023/08/17 09:00:21;;;;;;;9.23;8.32;;;;;;;28.40;53.79;101122.47;5047757;28;20045;-55
2023/08/17 09:02:49;;;;;;;8.63;7.82;;;;;;;28.41;53.51;101129.59;5037793;28;20054;-53
2023/08/17 09:05:18;;;;;;;8.48;7.68;;;;;;;28.42;53.64;101119.53;5046294;28;20411;-55
2023/08/17 09:07:48;;;;;;;8.80;8.10;;;;;;;28.42;53.78;101120.38;5043021;28;20052;-55
2023/08/17 09:10:16;;;;;;;8.57;7.85;;;;;;;28.43;53.87;101124.78;5038698;28;20511;-55
2023/08/17 09:12:47;;;;;;;8.55;7.85;;;;;;;28.43;53.71;101121.22;5048722;28;20377;-55
2023/08/17 09:15:15;;;;;;;8.05;7.35;;;;;;;28.42;53.62;101123.09;5041056;28;20060;-55
2023/08/17 09:17:44;;;;;;;8.95;8.05;;;;;;;28.43;53.66;101121.22;5042341;28;20045;-55
2023/08/17 09:20:11;;;;;;;8.50;7.72;;;;;;;28.44;53.48;101120.19;5048512;28;20045;-54
2023/08/17 09:22:41;;;;;;;8.38;7.57;;;;;;;28.44;53.50;101112.88;5038017;28;20041;-55
2023/08/17 09:25:10;;;;;;;8.77;7.93;;;;;;;28.44;53.78;101117.47;5048273;28;20041;-55
2023/08/17 09:27:38;;;;;;;7.72;6.93;;;;;;;28.43;53.45;101108.44;5041559;28;20045;-55
2023/08/17 09:30:10;;;;;;;8.55;7.15;;;;;;;28.45;53.54;101111.00;5048876;28;20513;-55
2023/08/17 09:32:38;;;;;;;8.63;7.90;;;;;;;28.45;53.53;101108.28;5038390;28;20045;-53
2023/08/17 09:35:06;;;;;;;7.30;6.70;;;;;;;28.45;53.48;101109.13;5043571;28;20068;-55
2023/08/17 09:37:34;;;;;;;8.85;8.05;;;;;;;28.44;53.47;101102.00;5034273;28;20052;-55
2023/08/17 09:40:01;;;;;;;8.25;7.45;;;;;;;28.44;53.49;101098.41;5048314;28;20041;-55
2023/08/17 09:42:29;;;;;;;8.43;7.70;;;;;;;28.46;53.84;101101.78;5032807;28;20052;-55
2023/08/17 09:44:57;;;;;;;8.65;7.85;;;;;;;28.45;53.74;101100.09;5032966;28;20037;-54
2023/08/17 09:47:25;;;;;;;8.07;7.38;;;;;;;28.46;53.50;101090.91;5045137;28;20048;-60
2023/08/17 09:49:54;;;;;;;8.30;7.57;;;;;;;28.46;53.41;101089.03;5037011;28;20041;-60
2023/08/17 09:52:23;;;;;;;7.80;7.10;;;;;;;28.46;53.32;101088.19;5047228;28;20498;-60
2023/08/17 09:54:54;;;;;;;8.18;7.43;;;;;;;28.45;53.54;101078.31;5041632;28;20072;-60
2023/08/17 09:57:22;;;;;;;7.90;7.10;;;;;;;28.46;53.81;101082.72;5039129;28;20057;-55
2023/08/17 09:59:51;;;;;;;8.07;7.38;;;;;;;28.46;53.56;101089.03;5048577;28;20048;-55
2023/08/17 10:02:23;;;;;;;8.32;7.50;;;;;;;28.46;53.83;101086.28;5039819;28;20048;-56
2023/08/17 10:04:53;;;;;;;8.10;7.40;;;;;;;28.47;53.22;101090.69;5042992;28;20049;-55
2023/08/17 10:07:28;;;;;;;7.97;7.22;;;;;;;28.47;53.69;101087.97;5036969;28;20108;-60
2023/08/17 10:10:04;;;;;;;8.40;7.45;;;;;;;28.47;53.70;101084.41;5038226;28;20483;-60
2023/08/17 10:12:37;;;;;;;8.50;7.67;;;;;;;28.47;53.70;101084.41;5042993;28;20492;-60
2023/08/17 10:15:08;;;;;;;7.85;7.20;;;;;;;28.47;53.76;101084.41;5045367;28;20059;-60
2023/08/17 10:17:44;;;;;;;8.52;7.82;;;;;;;28.48;53.53;101086.97;5037098;28;20054;-60
2023/08/17 10:20:14;;;;;;;7.47;6.85;;;;;;;28.49;53.64;101087.81;5044429;28;20042;-60
2023/08/17 10:23:12;;;;;;;7.95;7.28;;;;;;;28.50;53.96;101078.59;5043866;28;20041;-60
2023/08/17 10:25:42;;;;;;;8.35;7.63;;;;;;;28.50;53.72;101074.00;5043131;28;20065;-60
2023/08/17 10:28:12;;;;;;;7.70;7.00;;;;;;;28.51;53.81;101059.34;5040768;28;20053;-54
2023/08/17 10:30:39;;;;;;;7.88;7.18;;;;;;;28.51;53.83;101055.78;5039728;28;20514;-54
2023/08/17 10:33:09;;;;;;;8.57;7.68;;;;;;;28.53;54.09;101060.00;5048187;28;20052;-53
2023/08/17 10:35:39;;;;;;;9.27;8.30;;;;;;;28.55;53.90;101059.81;5032559;28;20060;-54
2023/08/17 10:38:07;;;;;;;8.05;7.25;;;;;;;28.55;54.16;101062.53;5041899;28;20967;-54
2023/08/17 10:40:40;;;;;;;7.93;7.22;;;;;;;28.56;54.43;101056.91;5039009;28;20484;-53
2023/08/17 10:43:08;;;;;;;7.78;7.07;;;;;;;28.56;54.15;101064.22;5047400;28;20510;-54
2023/08/17 10:45:38;;;;;;;8.50;7.80;;;;;;;28.57;54.18;101055.03;5031626;28;20056;-54
2023/08/17 10:48:05;;;;;;;8.75;7.97;;;;;;;28.58;54.22;101057.56;5042792;28;20503;-54
2023/08/17 10:50:34;;;;;;;8.38;7.68;;;;;;;28.59;54.51;101056.53;5046279;28;20053;-55
2023/08/17 10:53:10;;;;;;;8.52;7.72;;;;;;;28.59;54.52;101053.78;5036346;28;20415;-55
2023/08/17 10:55:40;;;;;;;8.30;7.50;;;;;;;28.59;54.52;101045.63;5044926;28;20498;-53
2023/08/17 10:58:08;;;;;;;8.02;7.30;;;;;;;28.59;54.50;101042.91;5043174;28;20056;-60
2023/08/17 11:00:43;;;;;;;9.10;8.20;;;;;;;28.59;54.25;101045.63;5034794;28;20053;-60
2023/08/17 11:03:20;;;;;;;9.05;8.15;;;;;;;28.61;54.21;101048.19;5046153;28;20057;-61
2023/08/17 11:05:52;;;;;;;8.18;7.38;;;;;;;28.62;54.06;101043.56;5042365;28;20053;-60
2023/08/17 11:08:32;;;;;;;8.13;7.43;;;;;;;28.61;54.19;101037.28;5035994;28;20400;-55
2023/08/17 11:11:04;;;;;;;8.27;7.57;;;;;;;28.62;54.07;101035.41;5035169;28;20049;-54
2023/08/17 11:13:34;;;;;;;7.88;7.18;;;;;;;28.63;54.64;101037.09;5036491;28;20053;-53
2023/08/17 11:16:02;;;;;;;8.48;7.68;;;;;;;28.64;54.66;101025.16;5035498;28;20049;-54
2023/08/17 11:18:32;;;;;;;8.20;7.40;;;;;;;28.62;54.91;101027.22;5036293;28;20060;-55
2023/08/17 11:21:03;;;;;;;8.60;7.78;;;;;;;28.64;54.93;101025.16;5035925;28;20054;-54
2023/08/17 11:23:32;;;;;;;7.95;7.25;;;;;;;28.65;54.56;101021.41;5045200;28;20049;-54
2023/08/17 11:26:00;;;;;;;8.40;7.60;;;;;;;28.66;54.80;101023.09;5035032;28;20045;-55
2023/08/17 11:28:36;;;;;;;8.75;7.93;;;;;;;28.67;54.83;101019.31;5035556;28;20475;-59
2023/08/17 11:31:11;;;;;;;8.13;7.32;;;;;;;28.66;54.60;101010.31;5036219;28;20045;-59
2023/08/17 11:33:39;;;;;;;8.38;7.63;;;;;;;28.66;54.66;100998.56;5035467;28;20060;-60